Back to top

Rock Springs, WY weather

Rock Springs-Sweetwater County Airport, Rock Springs, WY: 1/20/2020 03:54
Visibility10 statute milesclear sky
View 7-Day Forecast
Area Summary
Sky/CloudsSky Clear
Weather [last 24 hours]None
Pressure30.42 in.Hg (1030 hPa)
Dew Point7 °F (-13.9 °C)
Relative Humidity87.1 %
Temperature10 °F (-12.2 °C)blue thermometer
Reading TimeMinimum to Maximum Temperature
6-hr ending 1/19@22:5415.1 °F to 25 °F (-9.4 °C to -3.9 °C)
6-hr ending 1/19@16:5424.1 °F to 28.9 °F (-4.4 °C to -1.7 °C)
6-hr ending 1/19@10:5410 °F to 24.1 °F (-12.2 °C to -4.4 °C)
6-hr ending 1/19@04:5412 °F to 18 °F (-11.1 °C to -7.8 °C)
24-hr ending 1/19@23:5410 °F to 28.9 °F (-12.2 °C to -1.7 °C)
Wind0 MPH (0 KT) green arrow pointing at 0 degrees
Wind FromNorth (000 Degrees)
Twilight Begins07:06Sunshine Yesterday
Sunrise07:36N/A
Sunset17:19
Twilight Ends17:49
RemarksI1001
METARKRKS 201054Z AUTO 00000KT 10SM CLR M12/M14 A3042 RMK AO2 SLP365 I1001 T11221139
Tags: